createdAt,value
2022-08-19T00:02:00.797Z,10.75
2022-08-19T00:04:35.313Z,11.65
2022-08-19T00:07:06.746Z,9.65
2022-08-19T00:09:35.143Z,8.95
2022-08-19T00:12:04.973Z,10.55
2022-08-19T00:14:33.111Z,9.93
2022-08-19T00:17:03.019Z,10.45
2022-08-19T00:19:31.577Z,9.75
2022-08-19T00:21:59.308Z,7.15
2022-08-19T00:24:27.690Z,7.45
2022-08-19T00:26:57.142Z,11.10
2022-08-19T00:29:26.777Z,8.85
2022-08-19T00:31:56.629Z,7.45
2022-08-19T00:34:27.152Z,7.53
2022-08-19T00:36:56.616Z,8.03
2022-08-19T00:39:24.495Z,8.28
2022-08-19T00:41:52.455Z,7.28
2022-08-19T00:44:27.933Z,8.65
2022-08-19T00:46:59.518Z,8.93
2022-08-19T00:49:37.363Z,9.73
2022-08-19T00:52:16.165Z,7.90
2022-08-19T00:54:47.827Z,8.15
2022-08-19T00:57:19.060Z,9.18
2022-08-19T00:59:58.798Z,7.40
2022-08-19T01:02:21.292Z,7.62
2022-08-19T01:04:48.783Z,7.75
2022-08-19T01:07:19.504Z,7.33
2022-08-19T01:09:47.215Z,10.18
2022-08-19T01:12:15.805Z,10.78
2022-08-19T01:14:44.298Z,7.37
2022-08-19T01:17:13.029Z,9.85
2022-08-19T01:19:44.821Z,8.23
2022-08-19T01:22:39.571Z,9.08
2022-08-19T01:25:14.745Z,7.55
2022-08-19T01:27:44.470Z,12.58
2022-08-19T01:30:22.104Z,9.40
2022-08-19T01:32:51.168Z,7.80
2022-08-19T01:35:19.601Z,12.05
2022-08-19T01:38:00.911Z,11.63
2022-08-19T01:40:33.664Z,8.73
2022-08-19T01:43:03.472Z,9.17
2022-08-19T01:45:37.794Z,11.38
2022-08-19T01:48:10.555Z,10.95
2022-08-19T01:50:55.090Z,9.25
2022-08-19T01:53:30.503Z,16.48
2022-08-19T01:56:01.362Z,7.72
2022-08-19T01:58:50.889Z,8.93
2022-08-19T02:01:20.919Z,9.83
2022-08-19T02:03:52.403Z,14.95
2022-08-19T02:06:21.917Z,14.10
2022-08-19T02:08:51.383Z,10.25
2022-08-19T02:11:26.724Z,10.28
2022-08-19T02:13:56.058Z,10.30
2022-08-19T02:16:24.742Z,10.38
2022-08-19T02:18:52.577Z,8.40
2022-08-19T02:21:23.246Z,10.82
2022-08-19T02:23:51.821Z,8.25
2022-08-19T02:26:20.785Z,10.15
2022-08-19T02:28:49.036Z,8.43
2022-08-19T02:31:21.334Z,8.15
2022-08-19T02:33:49.360Z,19.00
2022-08-19T02:36:20.553Z,8.18
2022-08-19T02:38:54.275Z,9.85
2022-08-19T02:41:23.826Z,7.78
2022-08-19T02:44:22.734Z,9.65
2022-08-19T02:46:32.363Z,8.25
2022-08-19T02:49:08.552Z,7.30
2022-08-19T02:51:42.425Z,13.22
2022-08-19T02:54:18.748Z,9.68
2022-08-19T02:56:52.313Z,11.75
2022-08-19T02:59:30.440Z,9.00
2022-08-19T03:02:02.337Z,8.95
2022-08-19T03:04:35.716Z,11.50
2022-08-19T03:07:10.680Z,9.55
2022-08-19T03:09:39.966Z,12.00
2022-08-19T03:12:07.849Z,12.20
2022-08-19T03:14:36.746Z,9.60
2022-08-19T03:17:05.488Z,10.35
2022-08-19T03:19:33.256Z,7.85
2022-08-19T03:22:01.232Z,9.80
2022-08-19T03:24:29.005Z,11.22
2022-08-19T03:27:00.146Z,10.78
2022-08-19T03:29:31.683Z,12.00
2022-08-19T03:32:04.869Z,10.10
2022-08-19T03:37:07.614Z,10.80
2022-08-19T03:39:38.628Z,12.00
2022-08-19T03:42:32.904Z,28.62
2022-08-19T03:44:38.081Z,10.38
2022-08-19T03:47:06.015Z,7.67
2022-08-19T03:49:35.668Z,10.58
2022-08-19T03:52:07.303Z,6.87
2022-08-19T03:54:35.894Z,10.08
2022-08-19T03:57:04.417Z,10.48
2022-08-19T03:59:35.739Z,8.55
2022-08-19T04:02:09.479Z,8.80
2022-08-19T04:04:40.424Z,8.33
2022-08-19T04:07:09.856Z,10.28
2022-08-19T04:09:37.740Z,8.90
2022-08-19T04:12:06.555Z,10.45
2022-08-19T04:14:35.634Z,9.35
2022-08-19T04:17:07.234Z,9.45
2022-08-19T04:19:36.436Z,7.97
2022-08-19T04:22:04.493Z,9.03
2022-08-19T04:24:32.299Z,9.28
2022-08-19T04:27:04.769Z,12.07
2022-08-19T04:29:32.957Z,11.03
2022-08-19T04:32:08.740Z,8.60
2022-08-19T04:34:30.838Z,7.95
2022-08-19T04:36:59.962Z,12.07
2022-08-19T04:39:49.754Z,13.53
2022-08-19T04:42:38.291Z,11.57
2022-08-19T04:45:13.704Z,12.85
2022-08-19T04:47:47.511Z,7.75
2022-08-19T04:50:15.551Z,9.38
2022-08-19T04:52:45.225Z,10.03
2022-08-19T04:55:14.192Z,11.90
2022-08-19T04:57:41.995Z,11.15
2022-08-19T05:00:11.852Z,10.10
2022-08-19T05:02:39.858Z,10.13
2022-08-19T05:05:08.241Z,18.62
2022-08-19T05:07:36.108Z,10.63
2022-08-19T05:10:06.035Z,10.45
2022-08-19T05:12:34.099Z,14.50
2022-08-19T05:15:06.301Z,12.20
2022-08-19T05:17:38.229Z,10.25
2022-08-19T05:20:25.491Z,14.20
2022-08-19T05:22:53.370Z,11.90
2022-08-19T05:25:22.672Z,11.00
2022-08-19T05:27:50.696Z,9.13
2022-08-19T05:30:18.931Z,10.45
2022-08-19T05:32:48.671Z,9.90
2022-08-19T05:35:18.013Z,8.53
2022-08-19T05:37:45.840Z,9.90
2022-08-19T05:40:13.423Z,9.13
2022-08-19T05:42:41.244Z,8.75
2022-08-19T05:45:10.196Z,9.00
2022-08-19T05:47:40.610Z,14.45
2022-08-19T05:50:08.602Z,11.90
2022-08-19T05:52:38.818Z,11.45
2022-08-19T05:55:08.628Z,14.28
2022-08-19T05:57:36.142Z,9.60
2022-08-19T06:00:08.946Z,16.70
2022-08-19T06:02:39.042Z,10.58
2022-08-19T06:05:09.571Z,8.23
2022-08-19T06:07:39.838Z,9.55
2022-08-19T06:10:11.725Z,11.90
2022-08-19T06:12:39.585Z,9.63
2022-08-19T06:15:12.253Z,11.30
2022-08-19T06:17:40.370Z,12.58
2022-08-19T06:20:13.871Z,10.58
2022-08-19T06:22:50.134Z,13.72
2022-08-19T06:25:18.089Z,11.68
2022-08-19T06:28:13.574Z,10.32
2022-08-19T06:30:16.515Z,10.70
2022-08-19T06:32:44.620Z,12.55
2022-08-19T06:35:14.347Z,10.80
2022-08-19T06:37:43.861Z,10.80
2022-08-19T06:40:13.199Z,10.78
2022-08-19T06:42:45.212Z,10.40
2022-08-19T06:45:10.913Z,9.65
2022-08-19T06:47:39.085Z,8.63
2022-08-19T06:50:07.708Z,12.90
2022-08-19T06:52:36.739Z,14.30
2022-08-19T06:55:07.286Z,12.37
2022-08-19T06:57:35.643Z,9.00
2022-08-19T07:00:07.135Z,13.48
2022-08-19T07:02:37.387Z,13.90
2022-08-19T07:05:07.770Z,10.90
2022-08-19T07:07:35.832Z,11.03
2022-08-19T07:10:07.730Z,12.18
2022-08-19T07:12:35.621Z,8.70
2022-08-19T07:15:09.264Z,13.45
2022-08-19T07:17:39.071Z,12.58
2022-08-19T07:20:09.635Z,9.68
2022-08-19T07:22:39.195Z,12.28
2022-08-19T07:25:09.839Z,9.58
2022-08-19T07:27:37.764Z,11.05
2022-08-19T07:30:12.400Z,11.25
2022-08-19T07:32:41.148Z,9.28
2022-08-19T07:35:10.440Z,10.68
2022-08-19T07:37:40.140Z,9.30
2022-08-19T07:40:09.135Z,7.90
2022-08-19T07:42:37.021Z,10.25
2022-08-19T07:45:06.988Z,7.25
2022-08-19T07:47:50.463Z,10.70
2022-08-19T07:50:08.125Z,10.10
2022-08-19T07:52:38.939Z,10.25
2022-08-19T07:55:13.651Z,10.63
2022-08-19T07:57:42.188Z,14.28
2022-08-19T08:00:10.703Z,13.20
2022-08-19T08:02:39.842Z,9.73
2022-08-19T08:05:26.626Z,9.80
2022-08-19T08:08:13.113Z,8.73
2022-08-19T08:10:41.275Z,6.08
2022-08-19T08:13:10.976Z,11.08
2022-08-19T08:15:43.300Z,11.48
2022-08-19T08:18:10.344Z,7.67
2022-08-19T08:20:39.022Z,7.70
2022-08-19T08:23:25.259Z,27.65
2022-08-19T08:25:56.199Z,7.75
2022-08-19T08:28:24.376Z,9.48
2022-08-19T08:30:52.405Z,9.95
2022-08-19T08:33:33.293Z,8.95
2022-08-19T08:35:54.313Z,6.72
2022-08-19T08:38:22.241Z,8.08
2022-08-19T08:41:00.156Z,7.47
2022-08-19T08:43:38.353Z,7.50
2022-08-19T08:46:31.482Z,5.50
2022-08-19T08:49:08.523Z,5.53
2022-08-19T08:51:45.204Z,7.12
2022-08-19T08:54:19.167Z,7.08
2022-08-19T08:56:48.969Z,7.35
2022-08-19T08:59:35.740Z,7.28
2022-08-19T09:02:05.500Z,7.53
2022-08-19T09:04:35.662Z,6.50
2022-08-19T09:07:35.072Z,5.80
2022-08-19T09:09:53.510Z,7.78
2022-08-19T09:12:47.286Z,5.78
2022-08-19T09:15:16.741Z,12.63
2022-08-19T09:17:45.182Z,6.97
2022-08-19T09:20:24.397Z,9.98
2022-08-19T09:22:53.997Z,8.03
2022-08-19T09:25:26.653Z,7.53
2022-08-19T09:28:02.405Z,5.90
2022-08-19T09:30:31.364Z,9.20
2022-08-19T09:35:30.391Z,10.63
2022-08-19T09:38:00.951Z,8.23
2022-08-19T09:40:33.476Z,6.15
2022-08-19T09:43:03.110Z,7.65
2022-08-19T09:45:33.187Z,6.58
2022-08-19T09:48:00.754Z,6.50
2022-08-19T09:50:31.894Z,5.08
2022-08-19T09:53:01.302Z,6.58
2022-08-19T09:55:31.994Z,8.30
2022-08-19T09:58:01.514Z,5.42
2022-08-19T10:00:31.164Z,6.03
2022-08-19T10:02:59.074Z,7.85
2022-08-19T10:05:45.380Z,5.17
2022-08-19T10:08:18.176Z,6.00
2022-08-19T10:10:47.606Z,5.47
2022-08-19T10:13:21.983Z,5.40
2022-08-19T10:15:54.054Z,6.47
2022-08-19T10:18:25.777Z,5.42
2022-08-19T10:21:08.977Z,5.35
2022-08-19T10:23:38.996Z,4.78
2022-08-19T10:26:08.269Z,6.62
2022-08-19T10:28:40.244Z,4.75
2022-08-19T10:31:15.128Z,6.10
2022-08-19T10:33:54.103Z,8.60
2022-08-19T10:36:18.944Z,8.08
2022-08-19T10:38:56.660Z,7.10
2022-08-19T10:41:29.618Z,7.12
2022-08-19T10:44:04.211Z,5.78
2022-08-19T10:46:33.144Z,5.25
2022-08-19T10:49:02.914Z,4.50
2022-08-19T10:51:50.123Z,4.50
2022-08-19T10:54:31.154Z,7.62
2022-08-19T10:56:56.014Z,6.60
2022-08-19T10:59:32.602Z,5.40
2022-08-19T11:02:04.245Z,6.33
2022-08-19T11:04:32.527Z,19.07
2022-08-19T11:07:00.222Z,8.50
2022-08-19T11:09:33.972Z,4.33
2022-08-19T11:11:58.241Z,5.75
2022-08-19T11:14:29.590Z,6.85
2022-08-19T11:16:59.160Z,5.62
2022-08-19T11:19:26.824Z,4.70
2022-08-19T11:21:54.935Z,5.72
2022-08-19T11:24:27.934Z,5.42
2022-08-19T11:27:00.400Z,5.85
2022-08-19T11:29:28.276Z,6.53
2022-08-19T11:31:56.017Z,7.10
2022-08-19T11:34:28.127Z,8.28
2022-08-19T11:37:00.121Z,5.40
2022-08-19T11:39:31.593Z,7.78
2022-08-19T11:42:00.441Z,6.35
2022-08-19T11:44:29.824Z,6.20
2022-08-19T11:46:58.125Z,4.83
2022-08-19T11:49:27.696Z,6.22
2022-08-19T11:51:56.506Z,14.00
2022-08-19T11:54:24.802Z,8.45
2022-08-19T11:56:52.268Z,7.35
2022-08-19T11:59:19.909Z,7.95
2022-08-19T12:01:47.407Z,8.08
2022-08-19T12:04:15.240Z,9.18
2022-08-19T12:06:42.929Z,8.03
2022-08-19T12:09:11.487Z,5.90
2022-08-19T12:11:39.838Z,9.25
2022-08-19T12:14:14.927Z,8.18
2022-08-19T12:16:52.244Z,6.80
2022-08-19T12:19:16.096Z,6.50
2022-08-19T12:21:45.879Z,7.85
2022-08-19T12:24:13.678Z,11.03
2022-08-19T12:26:53.456Z,7.42
2022-08-19T12:29:11.624Z,6.92
2022-08-19T12:31:40.467Z,7.55
2022-08-19T12:34:08.172Z,6.75
2022-08-19T12:36:36.914Z,5.80
2022-08-19T12:39:04.881Z,7.15
2022-08-19T12:41:32.503Z,5.08
2022-08-19T12:44:00.217Z,7.90
2022-08-19T12:46:28.867Z,8.43
2022-08-19T12:48:57.673Z,5.45
2022-08-19T12:51:27.374Z,7.28
2022-08-19T12:53:55.027Z,7.15
2022-08-19T12:56:23.976Z,9.03
2022-08-19T12:58:53.049Z,7.17
2022-08-19T13:01:23.079Z,9.70
2022-08-19T13:03:54.237Z,9.03
2022-08-19T13:06:22.001Z,5.70
2022-08-19T13:08:49.645Z,5.83
2022-08-19T13:11:21.067Z,6.08
2022-08-19T13:13:52.026Z,9.68
2022-08-19T13:16:20.776Z,8.33
2022-08-19T13:18:49.689Z,6.42
2022-08-19T13:21:17.275Z,7.00
2022-08-19T13:23:47.987Z,5.45
2022-08-19T13:26:16.863Z,8.13
2022-08-19T13:29:04.511Z,7.72
2022-08-19T13:31:55.072Z,7.97
2022-08-19T13:34:36.168Z,6.65
2022-08-19T13:37:05.558Z,23.15
2022-08-19T13:39:35.220Z,7.78
2022-08-19T13:42:04.699Z,6.90
2022-08-19T13:44:33.032Z,14.13
2022-08-19T13:47:06.186Z,4.83
2022-08-19T13:49:36.363Z,4.87
2022-08-19T13:52:06.289Z,9.65
2022-08-19T13:54:33.907Z,6.35
2022-08-19T13:57:01.851Z,8.33
2022-08-19T13:59:29.625Z,6.42
2022-08-19T14:02:01.477Z,6.15
2022-08-19T14:04:29.298Z,7.45
2022-08-19T14:06:56.811Z,6.05
2022-08-19T14:09:24.585Z,10.20
2022-08-19T14:11:52.081Z,5.97
2022-08-19T14:14:19.911Z,6.87
2022-08-19T14:16:47.892Z,4.92
2022-08-19T14:19:15.743Z,6.80
2022-08-19T14:21:43.443Z,7.53
2022-08-19T14:24:11.484Z,6.50
2022-08-19T14:26:39.359Z,5.90
2022-08-19T14:29:07.112Z,6.80
2022-08-19T14:31:34.971Z,10.58
2022-08-19T14:34:02.728Z,8.55
2022-08-19T14:36:35.323Z,7.28
2022-08-19T14:39:01.755Z,4.30
2022-08-19T14:41:30.708Z,8.85
2022-08-19T14:43:59.140Z,14.73
2022-08-19T14:46:29.543Z,6.75
2022-08-19T14:48:59.243Z,12.53
2022-08-19T14:51:28.157Z,11.88
2022-08-19T14:53:56.115Z,6.55
2022-08-19T14:56:28.071Z,6.20
2022-08-19T14:58:57.519Z,9.23
2022-08-19T15:01:26.652Z,7.90
2022-08-19T15:03:55.175Z,4.75
2022-08-19T15:06:25.398Z,7.15
2022-08-19T15:08:53.713Z,5.05
2022-08-19T15:11:25.485Z,7.72
2022-08-19T15:13:53.472Z,7.47
2022-08-19T15:16:23.780Z,6.33
2022-08-19T15:18:55.523Z,6.22
2022-08-19T15:21:26.967Z,6.20
2022-08-19T15:23:57.679Z,7.80
2022-08-19T15:26:27.887Z,6.62
2022-08-19T15:28:56.565Z,5.87
2022-08-19T15:31:28.182Z,9.48
2022-08-19T15:33:59.202Z,5.58
2022-08-19T15:36:28.104Z,4.55
2022-08-19T15:38:57.403Z,9.95
2022-08-19T15:41:30.176Z,6.65
2022-08-19T15:44:09.698Z,5.70
2022-08-19T15:46:40.728Z,5.80
2022-08-19T15:49:10.375Z,5.15
2022-08-19T15:51:41.510Z,8.53
2022-08-19T15:54:14.546Z,4.83
2022-08-19T15:56:47.462Z,5.35
2022-08-19T15:59:35.551Z,16.17
2022-08-19T16:02:23.563Z,10.45
2022-08-19T16:05:12.137Z,5.15
2022-08-19T16:07:39.872Z,27.52
2022-08-19T16:10:27.134Z,7.55
2022-08-19T16:12:38.785Z,9.03
2022-08-19T16:15:10.593Z,6.87
2022-08-19T16:17:40.356Z,16.30
2022-08-19T16:20:10.546Z,11.20
2022-08-19T16:22:40.391Z,24.18
2022-08-19T16:25:09.649Z,8.20
2022-08-19T16:27:39.816Z,7.58
2022-08-19T16:30:09.249Z,9.78
2022-08-19T16:32:36.797Z,12.40
2022-08-19T16:35:06.831Z,12.37
2022-08-19T16:37:34.589Z,9.65
2022-08-19T16:40:02.652Z,12.37
2022-08-19T16:42:30.739Z,11.40
2022-08-19T16:44:58.339Z,10.10
2022-08-19T16:47:25.891Z,13.50
2022-08-19T16:49:55.498Z,27.87
2022-08-19T16:52:25.086Z,14.30
2022-08-19T16:54:53.825Z,12.03
2022-08-19T16:57:23.418Z,17.10
2022-08-19T16:59:51.813Z,14.47
2022-08-19T17:02:22.905Z,16.37
2022-08-19T17:04:57.726Z,13.78
2022-08-19T17:07:21.511Z,8.75
2022-08-19T17:09:50.212Z,10.95
2022-08-19T17:12:18.396Z,11.30
2022-08-19T17:14:45.975Z,10.28
2022-08-19T17:17:14.212Z,8.40
2022-08-19T17:19:42.931Z,14.07
2022-08-19T17:22:12.642Z,15.00
2022-08-19T17:24:41.095Z,17.70
2022-08-19T17:27:08.903Z,18.90
2022-08-19T17:29:36.722Z,20.00
2022-08-19T17:32:05.540Z,50.98
2022-08-19T17:34:33.204Z,27.45
2022-08-19T17:37:00.789Z,25.65
2022-08-19T17:39:28.810Z,16.90
2022-08-19T17:41:57.022Z,28.67
2022-08-19T17:44:26.623Z,69.12
2022-08-19T17:46:55.698Z,41.15
2022-08-19T17:49:23.479Z,44.18
2022-08-19T17:51:51.929Z,25.52
2022-08-19T17:54:19.761Z,25.43
2022-08-19T17:56:47.932Z,15.80
2022-08-19T17:59:15.908Z,13.78
2022-08-19T18:01:53.138Z,19.32
2022-08-19T18:04:16.459Z,19.87
2022-08-19T18:06:46.906Z,16.35
2022-08-19T18:09:14.055Z,16.10
2022-08-19T18:11:43.425Z,18.60
2022-08-19T18:14:12.862Z,20.00
2022-08-19T18:16:40.635Z,24.95
2022-08-19T18:19:08.508Z,20.95
2022-08-19T18:21:36.016Z,27.67
2022-08-19T18:24:04.213Z,12.37
2022-08-19T18:26:32.211Z,15.83
2022-08-19T18:29:01.372Z,18.85
2022-08-19T18:31:29.499Z,16.82
2022-08-19T18:33:57.992Z,13.68
2022-08-19T18:36:52.098Z,15.55
2022-08-19T18:39:15.347Z,10.13
2022-08-19T18:42:01.940Z,12.25
2022-08-19T18:44:47.987Z,12.80
2022-08-19T18:47:34.372Z,12.20
2022-08-19T18:50:04.251Z,12.47
2022-08-19T18:52:36.415Z,13.93
2022-08-19T18:55:06.778Z,11.45
2022-08-19T18:57:34.949Z,12.85
2022-08-19T19:00:04.586Z,13.30
2022-08-19T19:02:38.651Z,8.88
2022-08-19T19:05:07.745Z,10.63
2022-08-19T19:07:35.563Z,9.60
2022-08-19T19:10:04.518Z,10.15
2022-08-19T19:12:37.266Z,12.25
2022-08-19T19:15:06.058Z,9.90
2022-08-19T19:17:33.852Z,10.78
2022-08-19T19:20:01.529Z,15.20
2022-08-19T19:22:29.388Z,13.48
2022-08-19T19:24:58.858Z,11.57
2022-08-19T19:27:26.774Z,12.18
2022-08-19T19:29:55.234Z,18.85
2022-08-19T19:32:33.058Z,10.35
2022-08-19T19:35:00.929Z,10.90
2022-08-19T19:37:28.773Z,10.93
2022-08-19T19:39:56.432Z,13.20
2022-08-19T19:42:24.253Z,12.88
2022-08-19T19:44:55.131Z,12.40
2022-08-19T19:47:23.861Z,11.12
2022-08-19T19:50:13.139Z,14.80
2022-08-19T19:52:23.052Z,11.48
2022-08-19T19:54:50.460Z,14.35
2022-08-19T19:57:18.183Z,11.20
2022-08-19T19:59:51.694Z,13.83
2022-08-19T20:02:16.996Z,11.05
2022-08-19T20:04:44.463Z,9.95
2022-08-19T20:07:12.148Z,9.60
2022-08-19T20:09:58.722Z,11.70
2022-08-19T20:12:09.972Z,11.03
2022-08-19T20:14:38.018Z,16.32
2022-08-19T20:17:06.691Z,14.03
2022-08-19T20:19:36.294Z,10.20
2022-08-19T20:22:06.217Z,10.70
2022-08-19T20:24:35.740Z,11.90
2022-08-19T20:27:04.972Z,13.40
2022-08-19T20:29:39.381Z,9.63
2022-08-19T20:32:02.916Z,12.00
2022-08-19T20:34:31.637Z,11.33
2022-08-19T20:36:59.290Z,12.35
2022-08-19T20:39:26.980Z,9.93
2022-08-19T20:41:55.904Z,12.28
2022-08-19T20:44:24.768Z,14.73
2022-08-19T20:46:54.579Z,10.48
2022-08-19T20:49:26.977Z,9.93
2022-08-19T20:51:54.041Z,8.15
2022-08-19T20:54:22.003Z,9.48
2022-08-19T20:56:50.534Z,14.47
2022-08-19T20:59:19.604Z,8.55
2022-08-19T21:01:48.362Z,7.47
2022-08-19T21:04:16.006Z,9.80
2022-08-19T21:06:45.347Z,7.50
2022-08-19T21:09:13.556Z,8.73
2022-08-19T21:11:41.761Z,8.43
2022-08-19T21:14:10.190Z,11.65
2022-08-19T21:16:37.889Z,10.60
2022-08-19T21:19:05.706Z,12.98
2022-08-19T21:21:34.403Z,10.35
2022-08-19T21:24:02.114Z,10.98
2022-08-19T21:26:29.741Z,10.38
2022-08-19T21:28:57.543Z,14.60
2022-08-19T21:31:25.109Z,10.55
2022-08-19T21:33:53.002Z,8.35
2022-08-19T21:36:20.687Z,11.12
2022-08-19T21:38:48.375Z,8.88
2022-08-19T21:41:16.097Z,8.03
2022-08-19T21:43:43.927Z,10.72
2022-08-19T21:46:11.606Z,10.00
2022-08-19T21:48:39.308Z,9.50
2022-08-19T21:51:08.157Z,10.20
2022-08-19T21:53:36.748Z,8.20
2022-08-19T21:56:06.887Z,9.23
2022-08-19T21:58:38.560Z,8.95
2022-08-19T22:01:07.437Z,8.03
2022-08-19T22:03:37.558Z,11.97
2022-08-19T22:06:06.103Z,9.83
2022-08-19T22:08:33.796Z,10.48
2022-08-19T22:11:03.655Z,10.72
2022-08-19T22:13:39.563Z,8.95
2022-08-19T22:16:07.083Z,6.62
2022-08-19T22:18:34.919Z,9.38
2022-08-19T22:21:06.354Z,10.23
2022-08-19T22:23:34.102Z,11.95
2022-08-19T22:26:02.441Z,9.78
2022-08-19T22:28:30.111Z,14.55
2022-08-19T22:30:58.090Z,11.03
2022-08-19T22:33:27.211Z,11.48
2022-08-19T22:35:55.516Z,9.95
2022-08-19T22:38:24.085Z,11.43
2022-08-19T22:40:53.105Z,8.25
2022-08-19T22:43:25.723Z,10.68
2022-08-19T22:45:55.085Z,10.08
2022-08-19T22:48:27.634Z,10.80
2022-08-19T22:51:14.716Z,9.70
2022-08-19T22:53:45.112Z,8.88
2022-08-19T22:56:15.592Z,9.50
2022-08-19T22:58:44.457Z,10.45
2022-08-19T23:01:27.423Z,9.48
2022-08-19T23:03:46.877Z,10.58
2022-08-19T23:06:14.979Z,9.33
2022-08-19T23:08:44.242Z,7.10
2022-08-19T23:11:12.026Z,8.13
2022-08-19T23:13:41.237Z,8.55
2022-08-19T23:16:09.306Z,9.48
2022-08-19T23:18:36.800Z,7.03
2022-08-19T23:21:07.806Z,8.88
2022-08-19T23:23:37.124Z,9.65
2022-08-19T23:26:06.822Z,8.98
2022-08-19T23:28:54.941Z,8.60
2022-08-19T23:31:22.564Z,8.58
2022-08-19T23:33:51.601Z,9.83
2022-08-19T23:36:22.043Z,7.40
2022-08-19T23:38:54.212Z,10.60
2022-08-19T23:41:22.942Z,12.87
2022-08-19T23:43:54.789Z,6.90
2022-08-19T23:46:27.524Z,8.60
2022-08-19T23:48:50.816Z,9.70
2022-08-19T23:51:18.872Z,10.63
2022-08-19T23:53:46.654Z,9.13
2022-08-19T23:56:14.505Z,7.87
2022-08-19T23:58:42.169Z,10.80
